sensor_id;sensor_type;location;lat;lon;timestamp;P1;durP1;ratioP1;P2;durP2;ratioP2
1765;SDS011;880;52.452;8.656;2022-09-09T00:00:12;8.13;;;7.40;;
1765;SDS011;880;52.452;8.656;2022-09-09T00:02:57;8.67;;;8.03;;
1765;SDS011;880;52.452;8.656;2022-09-09T00:05:45;8.90;;;8.00;;
1765;SDS011;880;52.452;8.656;2022-09-09T00:09:00;9.20;;;8.43;;
1765;SDS011;880;52.452;8.656;2022-09-09T00:11:48;7.20;;;6.60;;
1765;SDS011;880;52.452;8.656;2022-09-09T00:14:25;8.83;;;7.93;;
1765;SDS011;880;52.452;8.656;2022-09-09T00:17:22;7.57;;;6.87;;
1765;SDS011;880;52.452;8.656;2022-09-09T00:20:12;8.50;;;7.57;;
1765;SDS011;880;52.452;8.656;2022-09-09T00:22:45;7.90;;;7.10;;
1765;SDS011;880;52.452;8.656;2022-09-09T00:25:59;7.70;;;7.00;;
1765;SDS011;880;52.452;8.656;2022-09-09T00:29:25;9.10;;;7.43;;
1765;SDS011;880;52.452;8.656;2022-09-09T00:31:34;7.23;;;6.73;;
1765;SDS011;880;52.452;8.656;2022-09-09T00:34:13;7.70;;;6.10;;
1765;SDS011;880;52.452;8.656;2022-09-09T00:36:45;6.60;;;5.47;;
1765;SDS011;880;52.452;8.656;2022-09-09T00:39:24;7.90;;;5.77;;
1765;SDS011;880;52.452;8.656;2022-09-09T00:42:12;6.43;;;5.93;;
1765;SDS011;880;52.452;8.656;2022-09-09T00:44:55;7.77;;;4.57;;
1765;SDS011;880;52.452;8.656;2022-09-09T00:48:04;5.90;;;5.30;;
1765;SDS011;880;52.452;8.656;2022-09-09T00:58:43;6.17;;;5.60;;
1765;SDS011;880;52.452;8.656;2022-09-09T01:01:22;5.53;;;5.03;;
1765;SDS011;880;52.452;8.656;2022-09-09T01:03:53;8.43;;;5.33;;
1765;SDS011;880;52.452;8.656;2022-09-09T01:06:25;5.50;;;4.97;;
1765;SDS011;880;52.452;8.656;2022-09-09T01:09:11;5.57;;;5.00;;
1765;SDS011;880;52.452;8.656;2022-09-09T01:12:16;7.33;;;4.83;;
1765;SDS011;880;52.452;8.656;2022-09-09T01:15:17;6.30;;;5.07;;
1765;SDS011;880;52.452;8.656;2022-09-09T01:17:54;5.30;;;4.90;;
1765;SDS011;880;52.452;8.656;2022-09-09T01:26:36;9.30;;;4.80;;
1765;SDS011;880;52.452;8.656;2022-09-09T01:29:19;6.00;;;4.33;;
1765;SDS011;880;52.452;8.656;2022-09-09T01:31:56;5.47;;;3.70;;
1765;SDS011;880;52.452;8.656;2022-09-09T01:34:49;4.07;;;3.77;;
1765;SDS011;880;52.452;8.656;2022-09-09T01:37:18;5.40;;;4.33;;
1765;SDS011;880;52.452;8.656;2022-09-09T01:39:46;4.57;;;4.10;;
1765;SDS011;880;52.452;8.656;2022-09-09T01:42:15;4.10;;;3.70;;
1765;SDS011;880;52.452;8.656;2022-09-09T01:44:44;6.10;;;4.10;;
1765;SDS011;880;52.452;8.656;2022-09-09T01:47:11;3.80;;;3.50;;
1765;SDS011;880;52.452;8.656;2022-09-09T01:50:05;6.17;;;3.33;;
1765;SDS011;880;52.452;8.656;2022-09-09T01:52:37;3.70;;;3.40;;
1765;SDS011;880;52.452;8.656;2022-09-09T01:55:08;4.20;;;3.80;;
1765;SDS011;880;52.452;8.656;2022-09-09T02:00:19;3.73;;;3.53;;
1765;SDS011;880;52.452;8.656;2022-09-09T02:02:59;4.50;;;3.67;;
1765;SDS011;880;52.452;8.656;2022-09-09T02:08:59;6.70;;;3.83;;
1765;SDS011;880;52.452;8.656;2022-09-09T02:11:31;5.13;;;3.43;;
1765;SDS011;880;52.452;8.656;2022-09-09T02:14:08;3.90;;;3.60;;
1765;SDS011;880;52.452;8.656;2022-09-09T02:16:43;4.10;;;3.53;;
1765;SDS011;880;52.452;8.656;2022-09-09T02:19:29;3.67;;;3.43;;
1765;SDS011;880;52.452;8.656;2022-09-09T02:22:17;5.63;;;3.43;;
1765;SDS011;880;52.452;8.656;2022-09-09T02:24:48;4.60;;;3.50;;
1765;SDS011;880;52.452;8.656;2022-09-09T02:27:22;5.93;;;3.40;;
1765;SDS011;880;52.452;8.656;2022-09-09T02:29:51;4.13;;;3.40;;
1765;SDS011;880;52.452;8.656;2022-09-09T02:32:32;4.50;;;3.37;;
1765;SDS011;880;52.452;8.656;2022-09-09T02:35:06;3.50;;;3.20;;
1765;SDS011;880;52.452;8.656;2022-09-09T02:37:46;4.47;;;3.37;;
1765;SDS011;880;52.452;8.656;2022-09-09T02:40:16;3.43;;;2.80;;
1765;SDS011;880;52.452;8.656;2022-09-09T02:42:53;6.40;;;3.30;;
1765;SDS011;880;52.452;8.656;2022-09-09T02:45:25;5.03;;;2.87;;
1765;SDS011;880;52.452;8.656;2022-09-09T02:48:06;4.27;;;2.67;;
1765;SDS011;880;52.452;8.656;2022-09-09T02:51:00;3.27;;;2.87;;
1765;SDS011;880;52.452;8.656;2022-09-09T02:56:29;3.20;;;2.97;;
1765;SDS011;880;52.452;8.656;2022-09-09T02:59:05;4.30;;;3.30;;
1765;SDS011;880;52.452;8.656;2022-09-09T03:01:34;2.70;;;2.50;;
1765;SDS011;880;52.452;8.656;2022-09-09T03:04:02;7.20;;;3.37;;
1765;SDS011;880;52.452;8.656;2022-09-09T03:06:31;3.27;;;2.80;;
1765;SDS011;880;52.452;8.656;2022-09-09T03:09:08;4.43;;;2.83;;
1765;SDS011;880;52.452;8.656;2022-09-09T03:11:37;4.60;;;2.50;;
1765;SDS011;880;52.452;8.656;2022-09-09T03:14:05;3.37;;;3.03;;
1765;SDS011;880;52.452;8.656;2022-09-09T03:16:34;3.53;;;3.00;;
1765;SDS011;880;52.452;8.656;2022-09-09T03:19:01;3.37;;;2.53;;
1765;SDS011;880;52.452;8.656;2022-09-09T03:21:28;2.50;;;2.30;;
1765;SDS011;880;52.452;8.656;2022-09-09T03:23:56;6.77;;;3.40;;
1765;SDS011;880;52.452;8.656;2022-09-09T03:26:23;3.30;;;3.00;;
1765;SDS011;880;52.452;8.656;2022-09-09T03:28:50;6.60;;;2.93;;
1765;SDS011;880;52.452;8.656;2022-09-09T03:31:21;3.30;;;3.00;;
1765;SDS011;880;52.452;8.656;2022-09-09T03:33:49;3.77;;;2.90;;
1765;SDS011;880;52.452;8.656;2022-09-09T03:36:18;3.20;;;2.90;;
1765;SDS011;880;52.452;8.656;2022-09-09T03:38:45;3.87;;;2.70;;
1765;SDS011;880;52.452;8.656;2022-09-09T03:41:12;3.27;;;3.03;;
1765;SDS011;880;52.452;8.656;2022-09-09T03:43:39;2.80;;;2.60;;
1765;SDS011;880;52.452;8.656;2022-09-09T03:46:07;4.87;;;2.60;;
1765;SDS011;880;52.452;8.656;2022-09-09T03:48:34;3.47;;;3.10;;
1765;SDS011;880;52.452;8.656;2022-09-09T03:51:03;5.00;;;3.10;;
1765;SDS011;880;52.452;8.656;2022-09-09T03:53:31;3.20;;;2.50;;
1765;SDS011;880;52.452;8.656;2022-09-09T03:56:01;3.07;;;2.30;;
1765;SDS011;880;52.452;8.656;2022-09-09T03:58:29;3.70;;;2.23;;
1765;SDS011;880;52.452;8.656;2022-09-09T04:01:10;3.67;;;2.70;;
1765;SDS011;880;52.452;8.656;2022-09-09T04:03:41;4.07;;;2.53;;
1765;SDS011;880;52.452;8.656;2022-09-09T04:06:09;4.30;;;2.50;;
1765;SDS011;880;52.452;8.656;2022-09-09T04:08:41;2.60;;;2.33;;
1765;SDS011;880;52.452;8.656;2022-09-09T04:11:08;4.67;;;2.37;;
1765;SDS011;880;52.452;8.656;2022-09-09T04:13:37;5.17;;;2.67;;
1765;SDS011;880;52.452;8.656;2022-09-09T04:16:09;3.30;;;2.70;;
1765;SDS011;880;52.452;8.656;2022-09-09T04:18:39;3.78;;;2.90;;
1765;SDS011;880;52.452;8.656;2022-09-09T04:21:07;2.67;;;2.42;;
1765;SDS011;880;52.452;8.656;2022-09-09T04:23:36;4.43;;;2.55;;
1765;SDS011;880;52.452;8.656;2022-09-09T04:26:04;3.10;;;2.80;;
1765;SDS011;880;52.452;8.656;2022-09-09T04:28:33;3.50;;;2.57;;
1765;SDS011;880;52.452;8.656;2022-09-09T04:31:10;2.60;;;2.40;;
1765;SDS011;880;52.452;8.656;2022-09-09T04:33:48;4.50;;;2.10;;
1765;SDS011;880;52.452;8.656;2022-09-09T04:36:16;4.70;;;2.10;;
1765;SDS011;880;52.452;8.656;2022-09-09T04:38:49;3.77;;;2.10;;
1765;SDS011;880;52.452;8.656;2022-09-09T04:41:16;2.50;;;1.97;;
1765;SDS011;880;52.452;8.656;2022-09-09T04:43:46;2.23;;;2.13;;
1765;SDS011;880;52.452;8.656;2022-09-09T04:46:14;2.20;;;2.00;;
1765;SDS011;880;52.452;8.656;2022-09-09T04:48:43;2.70;;;1.90;;
1765;SDS011;880;52.452;8.656;2022-09-09T04:51:12;2.43;;;2.23;;
1765;SDS011;880;52.452;8.656;2022-09-09T04:53:41;2.20;;;1.97;;
1765;SDS011;880;52.452;8.656;2022-09-09T04:56:11;2.50;;;2.10;;
1765;SDS011;880;52.452;8.656;2022-09-09T04:58:48;6.37;;;2.33;;
1765;SDS011;880;52.452;8.656;2022-09-09T05:01:17;2.60;;;2.40;;
1765;SDS011;880;52.452;8.656;2022-09-09T05:03:47;2.53;;;2.23;;
1765;SDS011;880;52.452;8.656;2022-09-09T05:06:19;3.47;;;2.50;;
1765;SDS011;880;52.452;8.656;2022-09-09T05:08:52;2.23;;;2.13;;
1765;SDS011;880;52.452;8.656;2022-09-09T05:11:24;2.80;;;2.30;;
1765;SDS011;880;52.452;8.656;2022-09-09T05:14:00;2.27;;;2.07;;
1765;SDS011;880;52.452;8.656;2022-09-09T05:16:28;2.20;;;2.10;;
1765;SDS011;880;52.452;8.656;2022-09-09T05:18:56;3.20;;;2.40;;
1765;SDS011;880;52.452;8.656;2022-09-09T05:21:32;2.30;;;2.10;;
1765;SDS011;880;52.452;8.656;2022-09-09T05:23:59;3.87;;;2.70;;
1765;SDS011;880;52.452;8.656;2022-09-09T05:26:26;1.93;;;1.83;;
1765;SDS011;880;52.452;8.656;2022-09-09T05:28:56;3.30;;;2.63;;
1765;SDS011;880;52.452;8.656;2022-09-09T05:31:25;2.97;;;2.63;;
1765;SDS011;880;52.452;8.656;2022-09-09T05:33:54;3.43;;;2.20;;
1765;SDS011;880;52.452;8.656;2022-09-09T05:36:22;2.50;;;2.00;;
1765;SDS011;880;52.452;8.656;2022-09-09T05:38:53;2.50;;;2.30;;
1765;SDS011;880;52.452;8.656;2022-09-09T05:41:21;4.80;;;3.53;;
1765;SDS011;880;52.452;8.656;2022-09-09T05:43:51;3.50;;;3.00;;
1765;SDS011;880;52.452;8.656;2022-09-09T05:46:20;4.20;;;2.50;;
1765;SDS011;880;52.452;8.656;2022-09-09T05:48:52;4.13;;;2.90;;
1765;SDS011;880;52.452;8.656;2022-09-09T05:51:26;4.33;;;2.70;;
1765;SDS011;880;52.452;8.656;2022-09-09T05:53:57;4.20;;;2.60;;
1765;SDS011;880;52.452;8.656;2022-09-09T05:56:28;2.97;;;2.67;;
1765;SDS011;880;52.452;8.656;2022-09-09T05:58:57;2.77;;;2.57;;
1765;SDS011;880;52.452;8.656;2022-09-09T06:01:31;3.53;;;2.60;;
1765;SDS011;880;52.452;8.656;2022-09-09T06:04:01;3.90;;;2.90;;
1765;SDS011;880;52.452;8.656;2022-09-09T06:06:32;3.17;;;2.87;;
1765;SDS011;880;52.452;8.656;2022-09-09T06:09:05;2.77;;;2.57;;
1765;SDS011;880;52.452;8.656;2022-09-09T06:11:39;2.67;;;2.23;;
1765;SDS011;880;52.452;8.656;2022-09-09T06:14:08;2.93;;;2.60;;
1765;SDS011;880;52.452;8.656;2022-09-09T06:16:36;2.80;;;2.40;;
1765;SDS011;880;52.452;8.656;2022-09-09T06:19:10;4.40;;;2.90;;
1765;SDS011;880;52.452;8.656;2022-09-09T06:21:39;3.50;;;3.20;;
1765;SDS011;880;52.452;8.656;2022-09-09T06:24:08;3.57;;;2.80;;
1765;SDS011;880;52.452;8.656;2022-09-09T06:26:36;5.63;;;2.90;;
1765;SDS011;880;52.452;8.656;2022-09-09T06:29:11;4.50;;;3.10;;
1765;SDS011;880;52.452;8.656;2022-09-09T06:31:40;4.23;;;2.87;;
1765;SDS011;880;52.452;8.656;2022-09-09T06:34:17;3.23;;;2.93;;
1765;SDS011;880;52.452;8.656;2022-09-09T06:36:48;3.73;;;2.60;;
1765;SDS011;880;52.452;8.656;2022-09-09T06:39:15;3.00;;;2.70;;
1765;SDS011;880;52.452;8.656;2022-09-09T06:41:43;4.13;;;2.73;;
1765;SDS011;880;52.452;8.656;2022-09-09T06:44:39;4.03;;;2.80;;
1765;SDS011;880;52.452;8.656;2022-09-09T06:47:11;2.43;;;2.20;;
1765;SDS011;880;52.452;8.656;2022-09-09T06:49:39;2.60;;;2.40;;
1765;SDS011;880;52.452;8.656;2022-09-09T06:52:11;3.77;;;2.80;;
1765;SDS011;880;52.452;8.656;2022-09-09T06:54:38;3.57;;;2.90;;
1765;SDS011;880;52.452;8.656;2022-09-09T06:57:05;3.90;;;2.63;;
1765;SDS011;880;52.452;8.656;2022-09-09T06:59:54;5.70;;;2.40;;
1765;SDS011;880;52.452;8.656;2022-09-09T07:02:21;2.70;;;2.50;;
1765;SDS011;880;52.452;8.656;2022-09-09T07:04:48;5.30;;;2.73;;
1765;SDS011;880;52.452;8.656;2022-09-09T07:07:17;2.40;;;2.30;;
1765;SDS011;880;52.452;8.656;2022-09-09T07:09:45;3.30;;;2.73;;
1765;SDS011;880;52.452;8.656;2022-09-09T07:12:13;2.70;;;2.50;;
1765;SDS011;880;52.452;8.656;2022-09-09T07:14:47;3.00;;;2.70;;
1765;SDS011;880;52.452;8.656;2022-09-09T07:17:14;3.43;;;2.70;;
1765;SDS011;880;52.452;8.656;2022-09-09T07:19:41;2.77;;;2.57;;
1765;SDS011;880;52.452;8.656;2022-09-09T07:22:09;4.80;;;3.00;;
1765;SDS011;880;52.452;8.656;2022-09-09T07:24:37;3.03;;;2.63;;
1765;SDS011;880;52.452;8.656;2022-09-09T07:27:05;4.47;;;2.70;;
1765;SDS011;880;52.452;8.656;2022-09-09T07:29:34;4.10;;;2.60;;
1765;SDS011;880;52.452;8.656;2022-09-09T07:32:01;3.07;;;2.37;;
1765;SDS011;880;52.452;8.656;2022-09-09T07:34:34;7.30;;;2.53;;
1765;SDS011;880;52.452;8.656;2022-09-09T07:37:01;4.90;;;2.70;;
1765;SDS011;880;52.452;8.656;2022-09-09T07:39:29;5.07;;;2.73;;
1765;SDS011;880;52.452;8.656;2022-09-09T07:41:56;2.77;;;2.57;;
1765;SDS011;880;52.452;8.656;2022-09-09T07:44:25;2.73;;;2.53;;
1765;SDS011;880;52.452;8.656;2022-09-09T07:46:59;3.43;;;2.47;;
1765;SDS011;880;52.452;8.656;2022-09-09T07:49:32;6.27;;;3.33;;
1765;SDS011;880;52.452;8.656;2022-09-09T07:52:02;2.30;;;2.10;;
1765;SDS011;880;52.452;8.656;2022-09-09T07:54:30;4.43;;;2.80;;
1765;SDS011;880;52.452;8.656;2022-09-09T07:56:59;6.57;;;2.70;;
1765;SDS011;880;52.452;8.656;2022-09-09T07:59:28;13.87;;;3.30;;
1765;SDS011;880;52.452;8.656;2022-09-09T08:01:57;4.10;;;2.90;;
1765;SDS011;880;52.452;8.656;2022-09-09T08:04:27;4.70;;;2.60;;
1765;SDS011;880;52.452;8.656;2022-09-09T08:06:56;4.07;;;2.50;;
1765;SDS011;880;52.452;8.656;2022-09-09T08:09:27;6.80;;;2.67;;
1765;SDS011;880;52.452;8.656;2022-09-09T08:12:04;3.97;;;2.90;;
1765;SDS011;880;52.452;8.656;2022-09-09T08:14:35;2.53;;;2.37;;
1765;SDS011;880;52.452;8.656;2022-09-09T08:17:02;3.00;;;2.70;;
1765;SDS011;880;52.452;8.656;2022-09-09T08:19:31;4.10;;;3.13;;
1765;SDS011;880;52.452;8.656;2022-09-09T08:22:06;3.33;;;2.37;;
1765;SDS011;880;52.452;8.656;2022-09-09T08:24:36;2.93;;;2.50;;
1765;SDS011;880;52.452;8.656;2022-09-09T08:27:03;3.73;;;2.40;;
1765;SDS011;880;52.452;8.656;2022-09-09T08:29:30;6.40;;;2.70;;
1765;SDS011;880;52.452;8.656;2022-09-09T08:31:58;6.73;;;2.57;;
1765;SDS011;880;52.452;8.656;2022-09-09T08:34:27;2.90;;;2.50;;
1765;SDS011;880;52.452;8.656;2022-09-09T08:36:57;4.20;;;2.30;;
1765;SDS011;880;52.452;8.656;2022-09-09T08:39:32;5.10;;;2.60;;
1765;SDS011;880;52.452;8.656;2022-09-09T08:42:05;3.00;;;2.30;;
1765;SDS011;880;52.452;8.656;2022-09-09T08:45:02;3.80;;;2.60;;
1765;SDS011;880;52.452;8.656;2022-09-09T08:47:50;3.13;;;2.23;;
1765;SDS011;880;52.452;8.656;2022-09-09T08:50:40;4.60;;;2.03;;
1765;SDS011;880;52.452;8.656;2022-09-09T08:53:23;3.63;;;3.30;;
1765;SDS011;880;52.452;8.656;2022-09-09T08:55:58;2.97;;;2.63;;
1765;SDS011;880;52.452;8.656;2022-09-09T08:58:57;5.07;;;2.90;;
1765;SDS011;880;52.452;8.656;2022-09-09T09:10:41;5.17;;;2.80;;
1765;SDS011;880;52.452;8.656;2022-09-09T09:13:20;6.10;;;3.00;;
1765;SDS011;880;52.452;8.656;2022-09-09T09:16:13;3.23;;;2.50;;
1765;SDS011;880;52.452;8.656;2022-09-09T09:18:50;3.47;;;2.13;;
1765;SDS011;880;52.452;8.656;2022-09-09T09:21:21;2.33;;;2.03;;
1765;SDS011;880;52.452;8.656;2022-09-09T09:24:01;5.43;;;3.03;;
1765;SDS011;880;52.452;8.656;2022-09-09T09:26:32;4.47;;;2.77;;
1765;SDS011;880;52.452;8.656;2022-09-09T09:29:16;3.63;;;2.90;;
1765;SDS011;880;52.452;8.656;2022-09-09T09:31:51;8.93;;;2.70;;
1765;SDS011;880;52.452;8.656;2022-09-09T09:34:23;6.43;;;2.70;;
1765;SDS011;880;52.452;8.656;2022-09-09T09:36:59;7.67;;;3.17;;
1765;SDS011;880;52.452;8.656;2022-09-09T09:39:31;4.73;;;2.87;;
1765;SDS011;880;52.452;8.656;2022-09-09T09:42:23;4.83;;;3.27;;
1765;SDS011;880;52.452;8.656;2022-09-09T09:44:54;3.70;;;3.30;;
1765;SDS011;880;52.452;8.656;2022-09-09T09:47:22;3.50;;;3.20;;
1765;SDS011;880;52.452;8.656;2022-09-09T09:50:18;6.10;;;3.47;;
1765;SDS011;880;52.452;8.656;2022-09-09T09:52:53;5.90;;;3.57;;
1765;SDS011;880;52.452;8.656;2022-09-09T09:55:24;3.27;;;2.97;;
1765;SDS011;880;52.452;8.656;2022-09-09T09:57:52;4.27;;;3.27;;
1765;SDS011;880;52.452;8.656;2022-09-09T10:00:22;3.87;;;3.07;;
1765;SDS011;880;52.452;8.656;2022-09-09T10:03:00;4.80;;;3.00;;
1765;SDS011;880;52.452;8.656;2022-09-09T10:05:31;3.33;;;3.07;;
1765;SDS011;880;52.452;8.656;2022-09-09T10:08:10;5.00;;;3.30;;
1765;SDS011;880;52.452;8.656;2022-09-09T10:13:39;4.73;;;2.43;;
1765;SDS011;880;52.452;8.656;2022-09-09T10:16:43;3.60;;;2.80;;
1765;SDS011;880;52.452;8.656;2022-09-09T10:19:36;6.37;;;3.10;;
1765;SDS011;880;52.452;8.656;2022-09-09T10:24:58;2.73;;;2.50;;
1765;SDS011;880;52.452;8.656;2022-09-09T10:28:18;7.70;;;3.30;;
1765;SDS011;880;52.452;8.656;2022-09-09T10:31:12;5.20;;;3.17;;
1765;SDS011;880;52.452;8.656;2022-09-09T10:34:28;8.00;;;3.43;;
1765;SDS011;880;52.452;8.656;2022-09-09T10:43:13;7.17;;;2.73;;
1765;SDS011;880;52.452;8.656;2022-09-09T10:46:20;5.57;;;3.00;;
1765;SDS011;880;52.452;8.656;2022-09-09T10:54:58;5.63;;;3.17;;
1765;SDS011;880;52.452;8.656;2022-09-09T10:57:36;7.50;;;3.00;;
1765;SDS011;880;52.452;8.656;2022-09-09T11:03:25;3.70;;;2.50;;
1765;SDS011;880;52.452;8.656;2022-09-09T11:06:00;3.90;;;2.90;;
1765;SDS011;880;52.452;8.656;2022-09-09T11:08:36;7.63;;;3.10;;
1765;SDS011;880;52.452;8.656;2022-09-09T11:16:50;3.67;;;2.40;;
1765;SDS011;880;52.452;8.656;2022-09-09T11:19:26;5.70;;;2.70;;
1765;SDS011;880;52.452;8.656;2022-09-09T11:24:59;2.63;;;1.70;;
1765;SDS011;880;52.452;8.656;2022-09-09T11:27:51;3.93;;;2.10;;
1765;SDS011;880;52.452;8.656;2022-09-09T11:33:57;6.07;;;2.10;;
1765;SDS011;880;52.452;8.656;2022-09-09T11:36:38;2.10;;;1.60;;
1765;SDS011;880;52.452;8.656;2022-09-09T11:44:53;4.10;;;1.73;;
1765;SDS011;880;52.452;8.656;2022-09-09T11:47:26;2.87;;;1.83;;
1765;SDS011;880;52.452;8.656;2022-09-09T11:52:42;4.33;;;1.67;;
1765;SDS011;880;52.452;8.656;2022-09-09T11:55:25;4.80;;;1.73;;
1765;SDS011;880;52.452;8.656;2022-09-09T11:58:03;2.90;;;1.83;;
1765;SDS011;880;52.452;8.656;2022-09-09T12:00:51;4.23;;;1.60;;
1765;SDS011;880;52.452;8.656;2022-09-09T12:03:31;2.80;;;1.77;;
1765;SDS011;880;52.452;8.656;2022-09-09T12:08:58;4.60;;;2.10;;
1765;SDS011;880;52.452;8.656;2022-09-09T12:11:49;3.47;;;2.70;;
1765;SDS011;880;52.452;8.656;2022-09-09T12:14:20;3.20;;;2.10;;
1765;SDS011;880;52.452;8.656;2022-09-09T12:19:41;2.40;;;1.57;;
1765;SDS011;880;52.452;8.656;2022-09-09T12:22:16;2.23;;;1.77;;
1765;SDS011;880;52.452;8.656;2022-09-09T12:30:22;1.70;;;1.27;;
1765;SDS011;880;52.452;8.656;2022-09-09T12:33:06;3.47;;;1.63;;
1765;SDS011;880;52.452;8.656;2022-09-09T12:35:39;6.00;;;2.07;;
1765;SDS011;880;52.452;8.656;2022-09-09T12:38:12;3.40;;;1.50;;
1765;SDS011;880;52.452;8.656;2022-09-09T12:40:55;2.47;;;1.20;;
1765;SDS011;880;52.452;8.656;2022-09-09T12:43:24;4.60;;;1.60;;
1765;SDS011;880;52.452;8.656;2022-09-09T12:45:55;2.50;;;1.57;;
1765;SDS011;880;52.452;8.656;2022-09-09T12:48:44;3.67;;;1.80;;
1765;SDS011;880;52.452;8.656;2022-09-09T12:51:19;3.27;;;1.30;;
1765;SDS011;880;52.452;8.656;2022-09-09T12:53:55;2.80;;;1.13;;
1765;SDS011;880;52.452;8.656;2022-09-09T12:56:24;3.87;;;1.47;;
1765;SDS011;880;52.452;8.656;2022-09-09T12:58:54;1.90;;;1.40;;
1765;SDS011;880;52.452;8.656;2022-09-09T13:01:27;3.13;;;1.30;;
1765;SDS011;880;52.452;8.656;2022-09-09T13:03:57;2.10;;;1.23;;
1765;SDS011;880;52.452;8.656;2022-09-09T13:06:25;5.10;;;1.90;;
1765;SDS011;880;52.452;8.656;2022-09-09T13:08:56;2.43;;;1.33;;
1765;SDS011;880;52.452;8.656;2022-09-09T13:11:27;1.90;;;1.37;;
1765;SDS011;880;52.452;8.656;2022-09-09T13:14:00;1.83;;;1.30;;
1765;SDS011;880;52.452;8.656;2022-09-09T13:16:32;3.70;;;1.37;;
1765;SDS011;880;52.452;8.656;2022-09-09T13:19:08;3.23;;;1.90;;
1765;SDS011;880;52.452;8.656;2022-09-09T13:21:41;2.70;;;1.83;;
1765;SDS011;880;52.452;8.656;2022-09-09T13:24:31;2.07;;;1.87;;
1765;SDS011;880;52.452;8.656;2022-09-09T13:27:02;9.80;;;2.63;;
1765;SDS011;880;52.452;8.656;2022-09-09T13:29:56;3.13;;;2.10;;
1765;SDS011;880;52.452;8.656;2022-09-09T13:32:24;2.70;;;2.20;;
1765;SDS011;880;52.452;8.656;2022-09-09T13:34:59;2.93;;;2.30;;
1765;SDS011;880;52.452;8.656;2022-09-09T13:40:17;6.03;;;2.50;;
1765;SDS011;880;52.452;8.656;2022-09-09T13:42:50;2.73;;;2.53;;
1765;SDS011;880;52.452;8.656;2022-09-09T13:45:23;5.60;;;2.53;;
1765;SDS011;880;52.452;8.656;2022-09-09T13:47:55;4.17;;;2.10;;
1765;SDS011;880;52.452;8.656;2022-09-09T13:50:24;4.10;;;2.40;;
1765;SDS011;880;52.452;8.656;2022-09-09T13:52:53;3.23;;;1.97;;
1765;SDS011;880;52.452;8.656;2022-09-09T13:55:27;2.10;;;1.77;;
1765;SDS011;880;52.452;8.656;2022-09-09T13:57:57;2.67;;;1.33;;
1765;SDS011;880;52.452;8.656;2022-09-09T14:00:30;1.50;;;1.40;;
1765;SDS011;880;52.452;8.656;2022-09-09T14:02:59;3.03;;;1.60;;
1765;SDS011;880;52.452;8.656;2022-09-09T14:05:28;6.47;;;1.63;;
1765;SDS011;880;52.452;8.656;2022-09-09T14:07:58;1.93;;;1.23;;
1765;SDS011;880;52.452;8.656;2022-09-09T14:10:26;2.20;;;1.03;;
1765;SDS011;880;52.452;8.656;2022-09-09T14:12:54;3.83;;;1.40;;
1765;SDS011;880;52.452;8.656;2022-09-09T14:15:20;2.80;;;1.47;;
1765;SDS011;880;52.452;8.656;2022-09-09T14:17:48;3.10;;;0.93;;
1765;SDS011;880;52.452;8.656;2022-09-09T14:20:15;2.63;;;1.57;;
1765;SDS011;880;52.452;8.656;2022-09-09T14:22:43;2.00;;;1.30;;
1765;SDS011;880;52.452;8.656;2022-09-09T14:25:10;3.97;;;1.30;;
1765;SDS011;880;52.452;8.656;2022-09-09T14:27:39;3.50;;;2.00;;
1765;SDS011;880;52.452;8.656;2022-09-09T14:30:08;1.60;;;1.50;;
1765;SDS011;880;52.452;8.656;2022-09-09T14:32:36;2.07;;;1.27;;
1765;SDS011;880;52.452;8.656;2022-09-09T14:35:03;3.40;;;1.73;;
1765;SDS011;880;52.452;8.656;2022-09-09T14:37:30;3.33;;;2.00;;
1765;SDS011;880;52.452;8.656;2022-09-09T14:39:57;3.37;;;1.93;;
1765;SDS011;880;52.452;8.656;2022-09-09T14:42:24;2.33;;;1.40;;
1765;SDS011;880;52.452;8.656;2022-09-09T14:44:53;2.63;;;1.50;;
1765;SDS011;880;52.452;8.656;2022-09-09T14:47:19;4.47;;;1.60;;
1765;SDS011;880;52.452;8.656;2022-09-09T14:49:47;4.27;;;1.23;;
1765;SDS011;880;52.452;8.656;2022-09-09T14:52:15;2.40;;;1.40;;
1765;SDS011;880;52.452;8.656;2022-09-09T14:54:42;4.87;;;1.40;;
1765;SDS011;880;52.452;8.656;2022-09-09T14:57:09;2.37;;;1.40;;
1765;SDS011;880;52.452;8.656;2022-09-09T14:59:36;3.27;;;1.20;;
1765;SDS011;880;52.452;8.656;2022-09-09T15:02:03;3.60;;;1.70;;
1765;SDS011;880;52.452;8.656;2022-09-09T15:04:34;1.83;;;1.33;;
1765;SDS011;880;52.452;8.656;2022-09-09T15:07:01;3.47;;;1.30;;
1765;SDS011;880;52.452;8.656;2022-09-09T15:09:28;4.00;;;1.60;;
1765;SDS011;880;52.452;8.656;2022-09-09T15:11:56;2.77;;;1.50;;
1765;SDS011;880;52.452;8.656;2022-09-09T15:14:23;1.23;;;1.13;;
1765;SDS011;880;52.452;8.656;2022-09-09T15:16:51;2.93;;;1.20;;
1765;SDS011;880;52.452;8.656;2022-09-09T15:19:18;1.77;;;0.90;;
1765;SDS011;880;52.452;8.656;2022-09-09T15:21:45;2.33;;;1.50;;
1765;SDS011;880;52.452;8.656;2022-09-09T15:24:12;1.90;;;1.17;;
1765;SDS011;880;52.452;8.656;2022-09-09T15:26:39;5.33;;;1.70;;
1765;SDS011;880;52.452;8.656;2022-09-09T15:29:07;1.60;;;1.27;;
1765;SDS011;880;52.452;8.656;2022-09-09T15:31:35;1.63;;;1.53;;
1765;SDS011;880;52.452;8.656;2022-09-09T15:34:06;2.33;;;1.40;;
1765;SDS011;880;52.452;8.656;2022-09-09T15:36:35;3.73;;;1.50;;
1765;SDS011;880;52.452;8.656;2022-09-09T15:39:06;1.53;;;1.43;;
1765;SDS011;880;52.452;8.656;2022-09-09T15:41:38;1.70;;;1.60;;
1765;SDS011;880;52.452;8.656;2022-09-09T15:44:07;3.10;;;1.57;;
1765;SDS011;880;52.452;8.656;2022-09-09T15:46:40;3.10;;;2.40;;
1765;SDS011;880;52.452;8.656;2022-09-09T15:49:22;3.37;;;2.00;;
1765;SDS011;880;52.452;8.656;2022-09-09T15:51:53;3.77;;;2.20;;
1765;SDS011;880;52.452;8.656;2022-09-09T15:54:33;4.80;;;2.13;;
1765;SDS011;880;52.452;8.656;2022-09-09T15:57:03;3.27;;;2.97;;
1765;SDS011;880;52.452;8.656;2022-09-09T15:59:32;5.37;;;2.53;;
1765;SDS011;880;52.452;8.656;2022-09-09T16:02:02;3.23;;;2.17;;
1765;SDS011;880;52.452;8.656;2022-09-09T16:04:29;3.80;;;2.30;;
1765;SDS011;880;52.452;8.656;2022-09-09T16:07:04;2.97;;;2.13;;
1765;SDS011;880;52.452;8.656;2022-09-09T16:09:32;2.60;;;2.40;;
1765;SDS011;880;52.452;8.656;2022-09-09T16:12:01;2.30;;;2.10;;
1765;SDS011;880;52.452;8.656;2022-09-09T16:14:34;2.47;;;2.27;;
1765;SDS011;880;52.452;8.656;2022-09-09T16:17:02;4.30;;;2.30;;
1765;SDS011;880;52.452;8.656;2022-09-09T16:19:29;2.37;;;2.10;;
1765;SDS011;880;52.452;8.656;2022-09-09T16:21:57;3.00;;;2.50;;
1765;SDS011;880;52.452;8.656;2022-09-09T16:24:24;3.73;;;2.67;;
1765;SDS011;880;52.452;8.656;2022-09-09T16:26:53;2.63;;;2.20;;
1765;SDS011;880;52.452;8.656;2022-09-09T16:29:21;3.17;;;2.10;;
1765;SDS011;880;52.452;8.656;2022-09-09T16:31:49;3.80;;;2.30;;
1765;SDS011;880;52.452;8.656;2022-09-09T16:34:18;3.10;;;1.90;;
1765;SDS011;880;52.452;8.656;2022-09-09T16:36:46;6.00;;;2.17;;
1765;SDS011;880;52.452;8.656;2022-09-09T16:39:15;3.03;;;2.00;;
1765;SDS011;880;52.452;8.656;2022-09-09T16:41:47;2.57;;;1.80;;
1765;SDS011;880;52.452;8.656;2022-09-09T16:44:16;3.23;;;2.00;;
1765;SDS011;880;52.452;8.656;2022-09-09T16:46:45;3.87;;;2.10;;
1765;SDS011;880;52.452;8.656;2022-09-09T16:49:15;2.70;;;1.90;;
1765;SDS011;880;52.452;8.656;2022-09-09T16:51:46;2.10;;;1.97;;
1765;SDS011;880;52.452;8.656;2022-09-09T16:54:15;2.03;;;1.83;;
1765;SDS011;880;52.452;8.656;2022-09-09T16:56:44;3.90;;;2.20;;
1765;SDS011;880;52.452;8.656;2022-09-09T16:59:14;3.63;;;2.10;;
1765;SDS011;880;52.452;8.656;2022-09-09T17:01:47;2.10;;;2.00;;
1765;SDS011;880;52.452;8.656;2022-09-09T17:04:21;2.03;;;1.90;;
1765;SDS011;880;52.452;8.656;2022-09-09T17:06:52;3.03;;;2.03;;
1765;SDS011;880;52.452;8.656;2022-09-09T17:09:21;3.07;;;2.40;;
1765;SDS011;880;52.452;8.656;2022-09-09T17:11:48;4.00;;;3.37;;
1765;SDS011;880;52.452;8.656;2022-09-09T17:14:19;3.27;;;2.63;;
1765;SDS011;880;52.452;8.656;2022-09-09T17:16:48;3.27;;;2.40;;
1765;SDS011;880;52.452;8.656;2022-09-09T17:19:15;3.07;;;2.77;;
1765;SDS011;880;52.452;8.656;2022-09-09T17:21:42;3.77;;;2.50;;
1765;SDS011;880;52.452;8.656;2022-09-09T17:24:29;2.90;;;2.70;;
1765;SDS011;880;52.452;8.656;2022-09-09T17:26:56;5.73;;;2.87;;
1765;SDS011;880;52.452;8.656;2022-09-09T17:29:24;5.10;;;3.27;;
1765;SDS011;880;52.452;8.656;2022-09-09T17:31:51;4.20;;;2.80;;
1765;SDS011;880;52.452;8.656;2022-09-09T17:34:18;3.53;;;2.80;;
1765;SDS011;880;52.452;8.656;2022-09-09T17:36:45;5.20;;;3.07;;